Time;durP1;ratioP1;P1;durP2;ratioP2;P2;SDS_P1;SDS_P2;PMS_P1;PMS_P2;Temp;Humidity;BMP_temperature;BMP_pressure;BME280_temperature;BME280_humidity;BME280_pressure;Samples;Min_cycle;Max_cycle;Signal;HPM_P1;HPM_P2
2021/12/12 00:02:33;;;;;;;23.20;10.65;;;;;;;4.07;100.00;101981.00;6218017;23;20004;-63
2021/12/12 00:05:07;;;;;;;25.98;10.68;;;;;;;4.03;100.00;101980.03;6218713;23;20000;-63
2021/12/12 00:07:33;;;;;;;23.70;10.13;;;;;;;4.02;100.00;101990.34;6219095;23;20008;-63
2021/12/12 00:10:04;;;;;;;34.53;10.93;;;;;;;4.11;100.00;101986.34;6218759;23;20008;-63
2021/12/12 00:12:34;;;;;;;26.38;11.90;;;;;;;3.90;100.00;101971.84;6218262;23;20005;-63
2021/12/12 00:15:01;;;;;;;27.00;9.63;;;;;;;4.13;100.00;101973.44;6218399;23;20418;-63
2021/12/12 00:17:27;;;;;;;22.15;9.68;;;;;;;4.14;100.00;101973.50;6218652;23;20067;-63
2021/12/12 00:19:53;;;;;;;27.67;12.10;;;;;;;4.13;100.00;101963.97;6218746;23;20008;-63
2021/12/12 00:22:22;;;;;;;22.35;9.43;;;;;;;4.06;100.00;101971.47;6218185;23;20000;-63
2021/12/12 00:24:48;;;;;;;28.55;10.05;;;;;;;4.14;100.00;101968.31;6218259;23;20398;-63
2021/12/12 00:27:14;;;;;;;25.58;10.25;;;;;;;4.15;100.00;101972.66;6218286;23;20087;-63
2021/12/12 00:29:39;;;;;;;27.88;9.40;;;;;;;4.15;100.00;101967.50;6219059;23;20080;-63
2021/12/12 00:32:09;;;;;;;25.27;9.68;;;;;;;4.14;100.00;101963.13;6218447;23;20135;-63
2021/12/12 00:34:38;;;;;;;28.88;9.27;;;;;;;4.21;100.00;101961.59;6218777;23;20009;-63
2021/12/12 00:37:08;;;;;;;23.63;9.43;;;;;;;4.34;99.88;101968.00;6218329;23;20069;-63
2021/12/12 00:39:36;;;;;;;25.42;8.93;;;;;;;4.25;100.00;101958.28;6218250;23;20035;-63
2021/12/12 00:42:15;;;;;;;23.25;9.20;;;;;;;4.22;100.00;101952.09;6218087;23;20491;-63
2021/12/12 00:44:46;;;;;;;21.95;8.70;;;;;;;4.36;100.00;101958.56;6218389;23;20005;-63
2021/12/12 00:47:12;;;;;;;25.15;9.52;;;;;;;4.24;100.00;101951.31;6218426;23;20102;-63
2021/12/12 00:49:40;;;;;;;24.58;9.38;;;;;;;4.26;100.00;101959.16;6218339;23;20345;-63
2021/12/12 00:52:08;;;;;;;22.52;8.85;;;;;;;4.23;100.00;101953.88;6217404;23;20015;-64
2021/12/12 00:54:35;;;;;;;31.50;11.25;;;;;;;4.17;100.00;101944.19;6218751;23;20012;-63
2021/12/12 00:57:04;;;;;;;26.92;9.77;;;;;;;4.24;100.00;101950.44;6217917;23;20015;-63
2021/12/12 00:59:30;;;;;;;29.73;10.15;;;;;;;4.25;100.00;101949.63;6218045;23;20080;-63
2021/12/12 01:01:57;;;;;;;32.08;10.60;;;;;;;4.25;100.00;101939.25;6217833;23;20032;-62
2021/12/12 01:04:30;;;;;;;25.20;8.27;;;;;;;4.28;100.00;101940.22;6217932;23;20062;-63
2021/12/12 01:06:58;;;;;;;25.25;9.32;;;;;;;4.24;100.00;101933.19;6218013;23;20016;-63
2021/12/12 01:09:32;;;;;;;27.48;10.15;;;;;;;4.29;100.00;101933.34;6218704;23;20015;-63
2021/12/12 01:12:02;;;;;;;26.02;9.50;;;;;;;4.27;100.00;101930.69;6218104;23;20291;-63
2021/12/12 01:14:32;;;;;;;27.88;9.05;;;;;;;4.28;100.00;101935.06;6218103;23;20004;-63
2021/12/12 01:17:09;;;;;;;31.95;10.27;;;;;;;4.23;100.00;101936.63;6218093;23;20016;-63
2021/12/12 01:19:49;;;;;;;28.95;10.05;;;;;;;4.22;100.00;101932.25;6217477;23;20009;-63
2021/12/12 01:22:22;;;;;;;28.42;9.43;;;;;;;4.22;100.00;101937.44;6217928;23;20012;-63
2021/12/12 01:24:51;;;;;;;32.15;9.88;;;;;;;4.19;100.00;101935.63;6217558;23;20016;-63
2021/12/12 01:27:18;;;;;;;24.15;8.65;;;;;;;4.28;100.00;101929.88;6217456;23;20429;-63
2021/12/12 01:29:47;;;;;;;30.58;10.07;;;;;;;4.23;100.00;101935.72;6217811;23;20011;-64
2021/12/12 01:32:23;;;;;;;24.83;9.45;;;;;;;4.31;100.00;101947.22;6218462;23;20267;-63
2021/12/12 01:34:51;;;;;;;28.17;9.88;;;;;;;4.25;100.00;101941.84;6217847;23;20005;-63
2021/12/12 01:40:00;;;;;;;25.60;9.27;;;;;;;4.25;100.00;101927.19;6226674;23;20411;-63
2021/12/12 01:42:31;;;;;;;23.17;10.30;;;;;;;4.29;100.00;101941.09;6217745;23;20016;-63
2021/12/12 01:45:14;;;;;;;30.02;9.93;;;;;;;4.40;100.00;101938.00;6217713;23;20070;-63
2021/12/12 01:47:49;;;;;;;25.25;9.43;;;;;;;4.29;100.00;101929.03;6217876;23;20004;-62
2021/12/12 01:50:31;;;;;;;24.23;9.95;;;;;;;4.36;100.00;101936.13;6217808;23;20004;-63
2021/12/12 01:52:59;;;;;;;26.10;10.23;;;;;;;4.31;100.00;101936.84;6218107;23;20301;-63
2021/12/12 01:55:32;;;;;;;34.55;11.07;;;;;;;4.34;100.00;101936.91;6217958;23;20001;-63
2021/12/12 01:58:02;;;;;;;35.35;12.40;;;;;;;4.34;100.00;101934.31;6218024;23;20016;-63
2021/12/12 02:00:33;;;;;;;32.33;9.98;;;;;;;4.30;100.00;101928.19;6217549;23;20009;-63
2021/12/12 02:03:03;;;;;;;22.75;9.75;;;;;;;4.34;100.00;101924.84;6217288;23;20369;-63
2021/12/12 02:05:29;;;;;;;28.48;10.32;;;;;;;4.41;100.00;101924.19;6217407;23;20059;-63
2021/12/12 02:08:00;;;;;;;24.90;10.30;;;;;;;4.37;100.00;101918.88;6217346;23;20009;-63
2021/12/12 02:10:32;;;;;;;26.60;11.20;;;;;;;4.41;100.00;101926.78;6217048;23;20317;-63
2021/12/12 02:13:04;;;;;;;29.33;9.85;;;;;;;4.45;100.00;101925.16;6217246;23;20150;-63
2021/12/12 02:15:33;;;;;;;26.48;9.68;;;;;;;4.41;100.00;101925.91;6217418;23;20004;-63
2021/12/12 02:17:59;;;;;;;28.35;9.60;;;;;;;4.44;100.00;101913.06;6217252;23;20379;-63
2021/12/12 02:20:42;;;;;;;27.13;10.13;;;;;;;4.43;100.00;101913.88;6218023;23;20004;-63
2021/12/12 02:23:23;;;;;;;31.42;9.93;;;;;;;4.44;100.00;101913.06;6217779;23;20004;-63
2021/12/12 02:36:52;;;;;;;25.63;8.95;;;;;;;4.66;100.00;101924.91;6217613;23;20027;-63
2021/12/12 02:39:18;;;;;;;24.85;9.32;;;;;;;4.64;100.00;101918.78;6217487;23;20026;-63
2021/12/12 02:41:46;;;;;;;25.92;8.57;;;;;;;4.68;100.00;101913.72;6216929;23;20077;-63
2021/12/12 02:44:12;;;;;;;25.23;9.23;;;;;;;4.60;100.00;101910.06;6217457;23;20012;-63
2021/12/12 02:46:41;;;;;;;34.10;8.98;;;;;;;4.61;100.00;101910.94;6217438;23;20011;-63
2021/12/12 02:49:23;;;;;;;33.95;10.68;;;;;;;4.64;100.00;101892.88;6217558;23;20005;-63
2021/12/12 02:51:48;;;;;;;28.10;11.73;;;;;;;4.73;100.00;101894.00;6217649;23;20051;-63
2021/12/12 02:54:14;;;;;;;34.03;12.55;;;;;;;4.66;100.00;101883.44;6217245;23;20350;-63
2021/12/12 02:56:44;;;;;;;29.58;9.57;;;;;;;4.69;100.00;101888.66;6217428;23;20349;-62
2021/12/12 02:59:16;;;;;;;25.27;7.85;;;;;;;4.78;100.00;101883.75;6217482;23;20012;-63
2021/12/12 03:01:47;;;;;;;;;;;;;;;4.82;100.00;101883.00;6217761;23;20317;-63
2021/12/12 03:04:13;;;;;;;24.58;8.35;;;;;;;4.73;100.00;101885.34;6217469;23;20253;-63
2021/12/12 03:06:43;;;;;;;28.13;9.10;;;;;;;4.68;100.00;101887.78;6216995;23;20008;-63
2021/12/12 03:09:22;;;;;;;20.73;7.90;;;;;;;4.76;100.00;101875.06;6216928;23;20040;-63
2021/12/12 03:11:52;;;;;;;29.85;9.38;;;;;;;4.73;100.00;101886.22;6216982;23;20468;-63
2021/12/12 03:14:18;;;;;;;25.13;8.95;;;;;;;4.65;100.00;101874.78;6217236;23;20008;-63
2021/12/12 03:16:47;;;;;;;28.20;9.30;;;;;;;4.74;100.00;101887.97;6215782;23;20020;-63
2021/12/12 03:19:13;;;;;;;30.70;8.48;;;;;;;4.69;100.00;101888.66;6216847;23;20452;-63
2021/12/12 03:21:42;;;;;;;30.83;9.38;;;;;;;4.75;100.00;101881.94;6217526;23;20036;-63
2021/12/12 03:24:13;;;;;;;33.47;10.45;;;;;;;4.80;100.00;101885.56;6217069;23;20410;-62
2021/12/12 03:26:42;;;;;;;32.05;10.07;;;;;;;4.85;100.00;101881.34;6217101;23;20055;-63
2021/12/12 03:29:07;;;;;;;27.95;8.98;;;;;;;4.75;100.00;101871.56;6216842;23;20421;-62
2021/12/12 03:31:38;;;;;;;20.27;8.63;;;;;;;4.73;100.00;101860.28;6217130;23;20084;-63
2021/12/12 03:34:09;;;;;;;29.33;10.15;;;;;;;4.84;100.00;101858.88;6216957;23;20075;-63
2021/12/12 03:36:36;;;;;;;24.73;8.98;;;;;;;4.84;100.00;101853.69;6218172;23;20429;-63
2021/12/12 03:39:12;;;;;;;22.13;8.57;;;;;;;4.99;100.00;101850.59;6218570;23;20069;-63
2021/12/12 03:41:40;;;;;;;27.10;9.38;;;;;;;4.90;100.00;101839.97;6218389;23;20013;-63
2021/12/12 03:44:11;;;;;;;30.15;9.88;;;;;;;4.98;100.00;101851.44;6218634;23;20440;-63
2021/12/12 03:46:37;;;;;;;23.95;9.00;;;;;;;5.03;100.00;101855.00;6219070;23;20004;-63
2021/12/12 03:49:04;;;;;;;25.25;9.80;;;;;;;4.91;100.00;101844.31;6218960;23;20082;-63
2021/12/12 03:51:30;;;;;;;30.88;9.98;;;;;;;4.85;100.00;101842.44;6218832;23;20058;-63
2021/12/12 03:53:56;;;;;;;29.63;9.98;;;;;;;4.92;100.00;101846.09;6218645;23;20009;-63
2021/12/12 03:56:22;;;;;;;25.58;9.73;;;;;;;4.97;100.00;101847.09;6218904;23;20081;-63
2021/12/12 03:58:48;;;;;;;29.10;10.10;;;;;;;4.95;100.00;101843.56;6218938;23;20004;-63
2021/12/12 04:01:28;;;;;;;20.48;10.10;;;;;;;5.03;100.00;101846.34;6219276;23;20075;-62
2021/12/12 04:03:56;;;;;;;26.38;10.45;;;;;;;5.00;100.00;101854.97;6218933;23;20015;-63
2021/12/12 04:06:26;;;;;;;24.75;10.43;;;;;;;4.98;100.00;101859.22;6218462;23;20013;-63
2021/12/12 04:08:52;;;;;;;28.80;11.00;;;;;;;4.96;100.00;101858.31;6219022;23;20005;-63
2021/12/12 04:11:40;;;;;;;24.48;10.10;;;;;;;5.10;100.00;101853.47;6219494;23;20018;-63
2021/12/12 04:14:07;;;;;;;22.83;10.98;;;;;;;4.97;100.00;101849.69;6218741;23;20114;-63
2021/12/12 04:16:35;;;;;;;30.35;10.38;;;;;;;4.97;100.00;101860.06;6218346;23;20398;-63
2021/12/12 04:19:02;;;;;;;27.45;11.25;;;;;;;4.96;100.00;101863.50;6218424;23;20012;-63
2021/12/12 04:21:28;;;;;;;25.30;12.05;;;;;;;4.94;100.00;101865.16;6218599;23;20016;-63
2021/12/12 04:23:54;;;;;;;22.90;11.05;;;;;;;4.90;100.00;101868.50;6218832;23;20036;-63
2021/12/12 04:26:32;;;;;;;26.83;11.43;;;;;;;4.98;100.00;101871.31;6218636;23;20011;-63
2021/12/12 04:29:12;;;;;;;19.73;10.30;;;;;;;5.18;100.00;101863.19;6218063;23;20070;-64
2021/12/12 04:31:41;;;;;;;22.17;11.77;;;;;;;4.97;100.00;101873.03;6218450;23;20080;-63
2021/12/12 04:34:08;;;;;;;17.17;7.90;;;;;;;5.14;100.00;101856.16;6218122;23;20398;-62
2021/12/12 04:36:39;;;;;;;24.77;11.40;;;;;;;5.01;100.00;101871.41;6218450;23;20009;-63
2021/12/12 04:39:27;;;;;;;23.63;10.95;;;;;;;5.16;100.00;101867.47;6218503;23;20410;-62
2021/12/12 04:41:58;;;;;;;21.90;10.30;;;;;;;5.22;100.00;101856.34;6219642;23;20070;-63
2021/12/12 04:44:29;;;;;;;24.15;10.05;;;;;;;5.18;100.00;101860.59;6218457;23;20012;-63
2021/12/12 04:50:18;;;;;;;24.42;9.85;;;;;;;5.12;100.00;101855.25;6218019;23;20090;-63
2021/12/12 04:53:06;;;;;;;19.88;10.25;;;;;;;5.21;100.00;101859.78;6218242;23;20004;-63
2021/12/12 04:55:41;;;;;;;19.77;10.30;;;;;;;5.18;100.00;101865.78;6218374;23;20008;-63
2021/12/12 04:58:14;;;;;;;19.15;10.18;;;;;;;5.14;100.00;101865.66;6218368;23;20004;-63
2021/12/12 05:00:49;;;;;;;20.08;9.15;;;;;;;5.17;100.00;101874.41;6218115;23;20013;-63
2021/12/12 05:03:31;;;;;;;16.15;9.95;;;;;;;5.23;100.00;101866.75;6218740;23;20071;-63
2021/12/12 05:06:02;;;;;;;18.98;9.40;;;;;;;5.27;100.00;101864.25;6219074;23;20013;-63
2021/12/12 05:08:36;;;;;;;17.73;9.65;;;;;;;5.28;100.00;101876.38;6218293;23;20008;-63
2021/12/12 05:11:08;;;;;;;20.67;9.73;;;;;;;5.24;100.00;101867.66;6218280;23;20020;-63
2021/12/12 05:13:51;;;;;;;18.52;9.02;;;;;;;5.38;100.00;101863.66;6217815;23;20460;-63
2021/12/12 05:16:26;;;;;;;19.52;9.07;;;;;;;5.21;100.00;101883.13;6218013;23;20075;-63
2021/12/12 05:19:01;;;;;;;18.27;9.68;;;;;;;5.25;100.00;101874.59;6217951;23;20005;-63
2021/12/12 05:21:31;;;;;;;18.58;10.02;;;;;;;5.22;100.00;101882.28;6217490;23;20432;-63
2021/12/12 05:23:59;;;;;;;19.83;10.13;;;;;;;5.16;100.00;101890.81;6218071;23;20009;-63
2021/12/12 05:26:32;;;;;;;20.55;10.13;;;;;;;5.25;100.00;101884.97;6217921;23;20018;-63
2021/12/12 05:29:08;;;;;;;19.77;10.02;;;;;;;5.20;100.00;101884.84;6217884;23;20306;-63
2021/12/12 05:31:34;;;;;;;17.75;10.20;;;;;;;5.27;100.00;101891.06;6217554;23;20417;-63
2021/12/12 05:34:01;;;;;;;18.13;9.38;;;;;;;5.29;100.00;101881.63;6217691;23;20123;-63
2021/12/12 05:36:32;;;;;;;17.73;9.75;;;;;;;5.27;100.00;101891.06;6217428;23;20004;-63
2021/12/12 05:38:58;;;;;;;16.27;8.88;;;;;;;5.31;100.00;101881.66;6218278;23;20081;-63
2021/12/12 05:41:25;;;;;;;16.70;9.10;;;;;;;5.30;100.00;101885.09;6217980;23;20008;-63
2021/12/12 05:43:54;;;;;;;16.45;8.77;;;;;;;5.32;100.00;101880.81;6217807;23;20080;-63
2021/12/12 05:46:20;;;;;;;15.88;10.10;;;;;;;5.35;100.00;101893.88;6217359;23;20016;-63
2021/12/12 05:48:47;;;;;;;17.05;9.35;;;;;;;5.32;100.00;101893.78;6218150;23;20310;-63
2021/12/12 05:51:13;;;;;;;15.60;9.07;;;;;;;5.35;100.00;101886.09;6217731;23;20004;-63
2021/12/12 05:53:39;;;;;;;21.85;9.27;;;;;;;5.44;100.00;101889.78;6217679;23;20044;-63
2021/12/12 05:56:06;;;;;;;16.63;9.13;;;;;;;5.39;100.00;101895.69;6217921;23;20008;-63
2021/12/12 05:58:32;;;;;;;15.13;9.10;;;;;;;5.37;100.00;101900.00;6217126;23;20000;-62
2021/12/12 06:01:02;;;;;;;15.73;9.80;;;;;;;5.42;100.00;101907.03;6217042;23;20457;-63
2021/12/12 06:03:30;;;;;;;16.83;8.35;;;;;;;5.51;100.00;101909.88;6217751;23;20088;-63
2021/12/12 06:05:57;;;;;;;15.27;9.98;;;;;;;5.43;100.00;101907.91;6218095;23;20058;-63
2021/12/12 06:08:25;;;;;;;16.77;9.45;;;;;;;5.41;100.00;101905.28;6217512;23;20000;-63
2021/12/12 06:10:52;;;;;;;18.38;9.80;;;;;;;5.48;100.00;101911.50;6217669;23;20009;-63
2021/12/12 06:13:19;;;;;;;15.80;9.68;;;;;;;5.44;100.00;101907.06;6217468;23;20004;-63
2021/12/12 06:15:49;;;;;;;15.43;9.00;;;;;;;5.57;100.00;101912.59;6217573;23;20008;-63
2021/12/12 06:18:15;;;;;;;16.20;9.70;;;;;;;5.56;100.00;101905.63;6218071;23;20004;-63
2021/12/12 06:20:41;;;;;;;16.05;9.35;;;;;;;5.57;100.00;101909.09;6217484;23;20452;-63
2021/12/12 06:23:09;;;;;;;15.70;9.00;;;;;;;5.69;100.00;101917.22;6217628;23;20076;-63
2021/12/12 06:25:36;;;;;;;16.23;9.68;;;;;;;5.68;100.00;101899.00;6217503;23;20092;-63
2021/12/12 06:28:10;;;;;;;15.90;9.05;;;;;;;5.71;100.00;101912.06;6217369;23;20012;-64
2021/12/12 06:30:37;;;;;;;17.17;9.82;;;;;;;5.66;100.00;101904.16;6217525;23;20397;-63
2021/12/12 06:33:03;;;;;;;16.05;10.50;;;;;;;5.71;100.00;101909.47;6217284;23;20104;-63
2021/12/12 06:35:29;;;;;;;17.70;10.45;;;;;;;5.73;100.00;101911.22;6217369;23;20315;-63
2021/12/12 06:37:54;;;;;;;18.30;10.50;;;;;;;5.73;100.00;101911.22;6217207;23;20019;-63
2021/12/12 06:40:21;;;;;;;15.93;10.13;;;;;;;5.72;100.00;101901.69;6217146;23;20013;-63
2021/12/12 06:42:48;;;;;;;16.23;10.02;;;;;;;5.81;100.00;101909.69;6217704;23;20005;-63
2021/12/12 06:45:16;;;;;;;16.67;10.13;;;;;;;5.78;100.00;101909.63;6216926;23;20020;-63
2021/12/12 06:47:41;;;;;;;19.40;10.32;;;;;;;5.70;100.00;101918.09;6217489;23;20063;-63
2021/12/12 06:50:09;;;;;;;19.95;11.27;;;;;;;5.74;100.00;101912.97;6217551;23;20009;-64
2021/12/12 06:52:36;;;;;;;19.75;11.60;;;;;;;5.74;100.00;101902.59;6217783;23;20008;-63
2021/12/12 06:55:05;;;;;;;17.42;11.30;;;;;;;5.76;100.00;101916.50;6217407;23;20005;-63
2021/12/12 06:57:31;;;;;;;21.45;11.50;;;;;;;5.81;100.00;101925.28;6217103;23;20059;-63
2021/12/12 06:59:58;;;;;;;20.17;12.02;;;;;;;5.81;100.00;101916.63;6217729;23;20105;-63
2021/12/12 07:02:24;;;;;;;21.20;11.68;;;;;;;5.86;100.00;101925.41;6217487;23;20005;-63
2021/12/12 07:04:50;;;;;;;23.52;10.98;;;;;;;6.00;100.00;101925.75;6217040;23;20410;-63
2021/12/12 07:07:16;;;;;;;19.27;11.65;;;;;;;5.92;100.00;101925.56;6217460;23;20015;-63
2021/12/12 07:09:43;;;;;;;20.08;11.40;;;;;;;5.93;100.00;101920.41;6215929;23;20004;-63
2021/12/12 07:12:12;;;;;;;23.63;12.43;;;;;;;5.93;100.00;101923.00;6218936;23;20280;-62
2021/12/12 07:14:39;;;;;;;24.38;12.60;;;;;;;5.94;100.00;101924.75;6219298;23;20005;-62
2021/12/12 07:17:06;;;;;;;21.50;12.02;;;;;;;6.07;100.00;101922.41;6219149;23;20008;-62
2021/12/12 07:19:31;;;;;;;19.33;11.77;;;;;;;5.98;100.00;101917.91;6219267;23;20012;-62
2021/12/12 07:22:01;;;;;;;20.92;12.55;;;;;;;6.04;100.00;101925.84;6219489;23;20004;-62
2021/12/12 07:24:27;;;;;;;23.05;12.10;;;;;;;6.03;100.00;101931.88;6219103;23;20004;-62
2021/12/12 07:26:53;;;;;;;21.98;12.10;;;;;;;6.07;100.00;101925.00;6217917;23;20008;-62
2021/12/12 07:29:19;;;;;;;21.35;12.88;;;;;;;6.05;100.00;101932.81;6218751;23;20012;-62
2021/12/12 07:31:45;;;;;;;22.27;13.05;;;;;;;6.06;100.00;101925.88;6219237;23;20032;-63
2021/12/12 07:34:13;;;;;;;22.40;12.70;;;;;;;6.10;100.00;101925.97;6218917;23;20036;-63
2021/12/12 07:36:49;;;;;;;22.02;12.32;;;;;;;6.16;100.00;101920.91;6219008;23;20298;-62
2021/12/12 07:39:16;;;;;;;25.50;12.93;;;;;;;6.16;100.00;101927.84;6219010;23;20369;-63
2021/12/12 07:41:44;;;;;;;20.73;11.38;;;;;;;6.23;100.00;101927.97;6219416;23;20469;-63
2021/12/12 07:44:11;;;;;;;25.35;12.98;;;;;;;6.17;100.00;101929.59;6218884;23;20016;-63
2021/12/12 07:46:37;;;;;;;28.55;13.95;;;;;;;6.18;100.00;101939.16;6218696;23;20462;-63
2021/12/12 07:49:04;;;;;;;26.17;13.07;;;;;;;6.26;100.00;101932.38;6218451;23;20079;-62
2021/12/12 07:51:30;;;;;;;24.20;13.48;;;;;;;6.29;100.00;101937.66;6218408;23;20017;-63
2021/12/12 07:53:59;;;;;;;30.48;14.32;;;;;;;6.28;100.00;101938.50;6218854;23;20009;-63
2021/12/12 07:56:28;;;;;;;25.55;12.88;;;;;;;6.22;100.00;101935.78;6218955;23;20015;-64
2021/12/12 07:58:56;;;;;;;27.73;14.02;;;;;;;6.25;100.00;101941.88;6218842;23;20005;-63
2021/12/12 08:01:22;;;;;;;23.75;13.50;;;;;;;6.28;100.00;101941.09;6218780;23;20004;-63
2021/12/12 08:03:50;;;;;;;28.02;15.00;;;;;;;6.28;100.00;101941.97;6218936;23;20075;-63
2021/12/12 08:06:16;;;;;;;29.55;14.02;;;;;;;6.26;100.00;101943.66;6219054;23;20084;-63
2021/12/12 08:08:42;;;;;;;31.85;14.07;;;;;;;6.34;100.00;101950.75;6218750;23;20036;-63
2021/12/12 08:11:09;;;;;;;27.80;14.48;;;;;;;6.43;100.00;101948.31;6219005;23;20001;-63
2021/12/12 08:13:35;;;;;;;31.08;13.98;;;;;;;6.38;100.00;101947.38;6218160;23;20004;-63
2021/12/12 08:16:05;;;;;;;23.45;12.75;;;;;;;6.54;100.00;101960.72;6218600;23;20005;-63
2021/12/12 08:18:32;;;;;;;28.02;14.75;;;;;;;6.49;100.00;101964.06;6218763;23;20020;-64
2021/12/12 08:20:59;;;;;;;31.83;14.50;;;;;;;6.44;100.00;101969.16;6218540;23;20341;-63
2021/12/12 08:23:25;;;;;;;33.85;15.05;;;;;;;6.44;100.00;101974.38;6218148;23;20016;-63
2021/12/12 08:25:51;;;;;;;35.80;14.73;;;;;;;6.43;100.00;101975.22;6218287;23;20033;-63
2021/12/12 08:28:19;;;;;;;30.52;15.02;;;;;;;6.43;100.00;101974.31;6218551;23;20012;-63
2021/12/12 08:30:46;;;;;;;31.83;15.02;;;;;;;6.47;100.00;101979.63;6218651;23;20036;-63
2021/12/12 08:33:12;;;;;;;36.65;16.25;;;;;;;6.45;100.00;101975.25;6217892;23;20008;-64
2021/12/12 08:35:39;;;;;;;27.13;15.27;;;;;;;6.49;100.00;101990.94;6218366;23;20009;-63
2021/12/12 08:38:06;;;;;;;28.42;15.00;;;;;;;6.47;100.00;101984.84;6218060;23;20005;-62
2021/12/12 08:40:34;;;;;;;28.05;15.70;;;;;;;6.48;100.00;101990.91;6218752;23;20012;-63
2021/12/12 08:43:00;;;;;;;31.05;15.18;;;;;;;6.55;100.00;101988.50;6218348;23;20095;-62
2021/12/12 08:45:30;;;;;;;29.35;15.02;;;;;;;6.55;100.00;102001.50;6218148;23;20391;-63
2021/12/12 08:47:58;;;;;;;31.75;15.05;;;;;;;6.56;100.00;102004.97;6218317;23;20035;-63
2021/12/12 08:50:27;;;;;;;31.92;14.85;;;;;;;6.58;100.00;101998.09;6218662;23;20008;-63
2021/12/12 08:52:55;;;;;;;29.40;14.68;;;;;;;6.66;100.00;101988.72;6217947;23;20295;-63
2021/12/12 08:55:31;;;;;;;33.42;15.20;;;;;;;6.73;100.00;101992.31;6217454;23;20350;-63
2021/12/12 08:58:14;;;;;;;28.75;14.52;;;;;;;6.68;100.00;101989.63;6218152;23;20005;-62
2021/12/12 09:01:01;;;;;;;31.55;15.18;;;;;;;6.65;100.00;102005.16;6217891;23;20005;-64
2021/12/12 09:03:36;;;;;;;30.52;15.43;;;;;;;6.64;100.00;102006.88;6217873;23;20023;-64
2021/12/12 09:06:02;;;;;;;28.20;14.77;;;;;;;6.74;100.00;102007.97;6217449;23;20009;-63
2021/12/12 09:08:35;;;;;;;33.92;15.95;;;;;;;6.72;100.00;102009.66;6218337;23;20062;-63
2021/12/12 09:11:07;;;;;;;;;;;;;;;6.79;100.00;102000.22;6218758;23;20008;-63
2021/12/12 09:13:39;;;;;;;37.78;14.63;;;;;;;6.79;100.00;102003.72;6218378;23;19935;-63
2021/12/12 09:16:16;;;;;;;36.58;13.25;;;;;;;6.87;100.00;101998.69;6217989;23;20019;-63
2021/12/12 09:18:52;;;;;;;30.50;15.05;;;;;;;6.83;100.00;102013.34;6218290;23;20039;-63
2021/12/12 09:21:36;;;;;;;29.70;15.05;;;;;;;6.83;100.00;102026.34;6217755;23;20011;-63
2021/12/12 09:24:11;;;;;;;33.85;14.95;;;;;;;6.84;100.00;102022.03;6218019;23;20008;-63
2021/12/12 09:26:48;;;;;;;33.50;15.82;;;;;;;6.84;100.00;102027.22;6218061;23;20035;-63
2021/12/12 09:29:29;;;;;;;32.85;15.23;;;;;;;6.84;100.00;102030.72;6217617;23;20398;-63
2021/12/12 09:32:00;;;;;;;28.63;14.10;;;;;;;6.84;100.00;102035.03;6218175;23;20028;-63
2021/12/12 09:34:38;;;;;;;36.23;14.97;;;;;;;6.88;100.00;102040.34;6217854;23;20009;-63
2021/12/12 09:37:12;;;;;;;29.20;14.75;;;;;;;6.93;100.00;102033.50;6218074;23;20012;-63
2021/12/12 09:39:49;;;;;;;25.25;11.63;;;;;;;7.01;100.00;102045.78;6217786;23;20005;-64
2021/12/12 09:42:27;;;;;;;30.35;14.82;;;;;;;6.93;100.00;102040.41;6217876;23;20478;-63
2021/12/12 09:45:23;;;;;;;29.55;14.77;;;;;;;7.04;100.00;102043.25;6218321;23;20004;-63
2021/12/12 09:48:25;;;;;;;35.05;15.77;;;;;;;6.98;100.00;102041.41;6217814;23;20004;-63
2021/12/12 09:51:33;;;;;;;36.03;15.45;;;;;;;7.03;100.00;102044.97;6217415;23;20083;-63
2021/12/12 09:54:07;;;;;;;32.72;14.43;;;;;;;7.11;100.00;102047.72;6217569;23;20016;-63
2021/12/12 09:56:56;;;;;;;29.48;14.15;;;;;;;7.14;100.00;102056.47;6217621;23;20012;-64
2021/12/12 09:59:41;;;;;;;30.33;14.00;;;;;;;7.14;100.00;102050.38;6217649;23;20005;-63
2021/12/12 10:02:15;;;;;;;32.80;13.90;;;;;;;7.18;100.00;102055.69;6217316;23;20413;-63
2021/12/12 10:05:02;;;;;;;31.27;14.30;;;;;;;7.17;100.00;102053.94;6217689;23;20004;-63
2021/12/12 10:07:53;;;;;;;30.08;14.65;;;;;;;7.19;100.00;102049.66;6217616;23;20036;-63
2021/12/12 10:10:47;;;;;;;28.50;14.48;;;;;;;7.30;100.00;102045.50;6217681;23;20008;-63
2021/12/12 10:13:29;;;;;;;28.77;14.63;;;;;;;7.25;100.00;102051.50;6217445;23;20062;-64
2021/12/12 10:16:03;;;;;;;31.52;15.77;;;;;;;7.30;100.00;102047.25;6217722;23;20008;-63
2021/12/12 10:18:40;;;;;;;33.42;15.40;;;;;;;7.28;100.00;102041.13;6217051;23;20008;-64
2021/12/12 10:21:13;;;;;;;35.55;16.60;;;;;;;7.28;100.00;102041.13;6217260;23;20078;-63
2021/12/12 10:24:04;;;;;;;38.03;16.45;;;;;;;7.39;100.00;102055.25;6217293;23;20020;-64
2021/12/12 10:26:37;;;;;;;34.90;16.83;;;;;;;7.34;100.00;102047.34;6214121;23;20008;-62
2021/12/12 10:29:10;;;;;;;32.47;15.48;;;;;;;7.39;100.00;102063.06;6216947;23;20004;-63
2021/12/12 10:31:46;;;;;;;31.52;15.02;;;;;;;7.55;100.00;102053.78;6217639;23;20032;-63
2021/12/12 10:34:14;;;;;;;30.15;15.15;;;;;;;7.45;100.00;102049.25;6217307;23;20079;-64
2021/12/12 10:36:52;;;;;;;30.83;14.90;;;;;;;7.47;100.00;102047.56;6217482;23;20035;-63
2021/12/12 10:39:24;;;;;;;30.75;15.98;;;;;;;7.46;100.00;102049.28;6217642;23;20051;-63
2021/12/12 10:41:54;;;;;;;;;;;;;;;7.54;100.00;102049.44;6218096;23;20027;-63
2021/12/12 10:44:25;;;;;;;33.25;15.32;;;;;;;7.45;100.00;102047.53;6217444;23;19908;-63
2021/12/12 10:46:57;;;;;;;35.95;15.93;;;;;;;7.50;100.00;102055.44;6218836;23;20022;-63
2021/12/12 10:49:56;;;;;;;33.47;16.20;;;;;;;7.46;100.00;102044.06;6218382;23;20012;-63
2021/12/12 10:52:46;;;;;;;33.42;15.55;;;;;;;7.55;100.00;102053.78;6217556;23;20283;-64
2021/12/12 10:55:21;;;;;;;33.33;16.70;;;;;;;7.45;100.00;102039.72;6217354;23;20012;-63
2021/12/12 10:58:00;;;;;;;38.83;15.98;;;;;;;7.55;100.00;102056.41;6216872;23;20015;-60
2021/12/12 11:00:31;;;;;;;36.35;18.00;;;;;;;7.54;100.00;102052.91;6218868;23;20374;-64
2021/12/12 11:03:00;;;;;;;38.70;17.85;;;;;;;7.57;100.00;102059.91;6219138;23;20001;-64
2021/12/12 11:05:45;;;;;;;38.53;17.00;;;;;;;7.63;100.00;102055.69;6219057;23;20004;-64
2021/12/12 11:08:14;;;;;;;28.58;15.65;;;;;;;7.67;100.00;102052.28;6219139;23;20012;-64
2021/12/12 11:10:44;;;;;;;30.30;16.20;;;;;;;7.62;100.00;102058.25;6218657;23;20015;-63
2021/12/12 11:13:30;;;;;;;30.48;15.77;;;;;;;7.67;100.00;102054.88;6218900;23;20086;-64
2021/12/12 11:16:15;;;;;;;33.55;16.55;;;;;;;7.62;100.00;102053.91;6218586;23;20096;-64
2021/12/12 11:18:53;;;;;;;31.60;16.00;;;;;;;7.72;100.00;102056.69;6218699;23;20086;-63
2021/12/12 11:21:31;;;;;;;27.67;15.40;;;;;;;7.74;100.00;102052.41;6218333;23;20302;-63
2021/12/12 11:23:59;;;;;;;28.98;14.70;;;;;;;7.63;100.00;102034.84;6218492;23;20000;-64
2021/12/12 11:26:34;;;;;;;31.17;16.20;;;;;;;7.79;100.00;102054.25;6218659;23;20052;-63
2021/12/12 11:29:04;;;;;;;27.83;15.70;;;;;;;7.74;100.00;102044.59;6219150;23;20043;-63
2021/12/12 11:31:41;;;;;;;30.13;15.48;;;;;;;7.78;100.00;102039.47;6218922;23;20394;-64
2021/12/12 11:34:08;;;;;;;26.48;13.65;;;;;;;7.88;100.00;102040.47;6218892;23;20099;-63
2021/12/12 11:36:45;;;;;;;25.25;14.15;;;;;;;7.85;100.00;102045.63;6219111;23;20012;-63
2021/12/12 11:39:35;;;;;;;26.92;14.20;;;;;;;7.84;100.00;102047.38;6219229;23;20086;-63
2021/12/12 11:42:05;;;;;;;27.52;14.15;;;;;;;7.88;100.00;102045.69;6218550;23;20078;-63
2021/12/12 11:45:05;;;;;;;23.08;13.57;;;;;;;7.93;100.00;102044.06;6219209;23;20079;-63
2021/12/12 11:47:51;;;;;;;26.27;13.80;;;;;;;7.97;100.00;102048.44;6219044;23;20043;-64
2021/12/12 11:50:46;;;;;;;22.42;13.38;;;;;;;8.02;100.00;102052.88;6219007;23;20012;-63